createdAt,value
2017-11-29T00:01:05.529Z,4.22
2017-11-29T00:03:33.879Z,4.24
2017-11-29T00:06:02.978Z,4.24
2017-11-29T00:08:32.114Z,4.25
2017-11-29T00:11:00.469Z,4.32
2017-11-29T00:13:29.182Z,4.36
2017-11-29T00:15:57.919Z,4.35
2017-11-29T00:18:27.003Z,4.43
2017-11-29T00:20:55.350Z,4.45
2017-11-29T00:23:23.715Z,4.35
2017-11-29T00:25:52.809Z,4.44
2017-11-29T00:28:21.145Z,4.47
2017-11-29T00:30:50.262Z,4.44
2017-11-29T00:33:18.623Z,4.43
2017-11-29T00:35:46.973Z,4.47
2017-11-29T00:38:15.330Z,4.42
2017-11-29T00:40:43.653Z,4.28
2017-11-29T00:43:12.749Z,4.45
2017-11-29T00:45:41.113Z,4.45
2017-11-29T00:48:10.202Z,4.45
2017-11-29T00:50:38.578Z,4.40
2017-11-29T00:53:06.910Z,4.37
2017-11-29T00:55:35.226Z,4.36
2017-11-29T00:58:03.574Z,4.41
2017-11-29T01:00:31.960Z,4.40
2017-11-29T01:03:00.297Z,4.38
2017-11-29T01:05:28.613Z,4.36
2017-11-29T01:07:56.957Z,4.35
2017-11-29T01:10:25.265Z,4.31
2017-11-29T01:12:53.578Z,4.27
2017-11-29T01:15:21.946Z,4.29
2017-11-29T01:17:50.269Z,4.26
2017-11-29T01:20:19.026Z,4.33
2017-11-29T01:22:48.105Z,4.34
2017-11-29T01:25:16.433Z,4.33
2017-11-29T01:27:45.565Z,4.37
2017-11-29T01:30:13.878Z,4.41
2017-11-29T01:32:42.966Z,4.36
2017-11-29T01:35:12.089Z,4.38
2017-11-29T01:37:40.409Z,4.41
2017-11-29T01:40:08.755Z,4.40
2017-11-29T01:42:38.230Z,4.47
2017-11-29T01:45:07.333Z,4.45
2017-11-29T01:47:35.705Z,4.33
2017-11-29T01:50:04.470Z,4.34
2017-11-29T01:52:32.789Z,4.31
2017-11-29T01:55:01.093Z,4.35
2017-11-29T01:57:29.441Z,4.36
2017-11-29T01:59:57.773Z,4.36
2017-11-29T02:02:26.125Z,4.34
2017-11-29T02:04:54.842Z,4.32
2017-11-29T02:07:23.961Z,4.34
2017-11-29T02:09:53.077Z,4.40
2017-11-29T02:12:22.537Z,4.39
2017-11-29T02:14:51.645Z,4.41
2017-11-29T02:17:19.988Z,4.40
2017-11-29T02:19:49.101Z,4.40
2017-11-29T02:22:18.925Z,4.39
2017-11-29T02:24:47.300Z,4.42
2017-11-29T02:27:15.622Z,4.36
2017-11-29T02:29:43.996Z,4.40
2017-11-29T02:32:12.381Z,4.44
2017-11-29T02:34:40.696Z,4.47
2017-11-29T02:37:09.041Z,4.47
2017-11-29T02:39:55.474Z,4.46
2017-11-29T02:42:43.410Z,4.52
2017-11-29T02:45:13.193Z,4.51
2017-11-29T02:47:41.505Z,4.43
2017-11-29T02:50:09.849Z,4.54
2017-11-29T02:52:38.190Z,4.58
2017-11-29T02:55:06.568Z,4.56
2017-11-29T02:57:34.893Z,4.55
2017-11-29T03:00:03.204Z,4.59
2017-11-29T03:02:32.306Z,4.63
2017-11-29T03:05:01.017Z,4.53
2017-11-29T03:07:29.361Z,4.52
2017-11-29T03:09:57.712Z,4.53
2017-11-29T03:12:26.016Z,4.53
2017-11-29T03:14:54.361Z,4.57
2017-11-29T03:17:22.708Z,4.57
2017-11-29T03:19:51.785Z,4.61
2017-11-29T03:22:20.095Z,4.63
2017-11-29T03:24:48.445Z,4.64
2017-11-29T03:27:17.209Z,4.61
2017-11-29T03:29:45.538Z,4.58
2017-11-29T03:32:13.857Z,4.60
2017-11-29T03:34:42.215Z,4.57
2017-11-29T03:37:10.552Z,4.46
2017-11-29T03:39:38.868Z,4.44
2017-11-29T03:42:07.222Z,4.41
2017-11-29T03:44:35.545Z,4.35
2017-11-29T03:47:04.636Z,4.39
2017-11-29T03:49:33.767Z,4.39
2017-11-29T03:52:02.084Z,4.39
2017-11-29T03:54:30.447Z,4.39
2017-11-29T03:56:58.766Z,4.33
2017-11-29T03:59:27.107Z,4.33
2017-11-29T04:01:56.246Z,4.35
2017-11-29T04:04:24.576Z,4.28
2017-11-29T04:06:52.944Z,4.22
2017-11-29T04:09:21.391Z,4.13
2017-11-29T04:11:50.495Z,4.09
2017-11-29T04:14:18.805Z,4.05
2017-11-29T04:16:47.151Z,3.99
2017-11-29T04:19:15.475Z,3.98
2017-11-29T04:21:44.649Z,3.97
2017-11-29T04:24:12.987Z,3.89
2017-11-29T04:26:41.369Z,3.82
2017-11-29T04:29:10.447Z,3.75
2017-11-29T04:31:38.753Z,3.63
2017-11-29T04:34:07.084Z,3.51
2017-11-29T04:36:35.393Z,3.42
2017-11-29T04:39:04.512Z,3.31
2017-11-29T04:41:32.836Z,3.21
2017-11-29T04:44:01.209Z,3.09
2017-11-29T04:46:29.516Z,2.93
2017-11-29T04:48:58.646Z,2.74
2017-11-29T04:51:26.980Z,2.58
2017-11-29T04:53:55.311Z,2.44
2017-11-29T04:56:23.661Z,2.33
2017-11-29T04:58:52.740Z,2.25
2017-11-29T05:01:21.866Z,2.19
2017-11-29T05:03:50.254Z,2.08
2017-11-29T05:06:18.627Z,2.05
2017-11-29T05:08:47.548Z,1.93
2017-11-29T05:11:16.271Z,1.79
2017-11-29T05:13:44.630Z,1.65
2017-11-29T05:16:12.946Z,1.55
2017-11-29T05:18:41.319Z,1.46
2017-11-29T05:21:09.640Z,1.39
2017-11-29T05:23:37.992Z,1.33
2017-11-29T05:26:06.368Z,1.26
2017-11-29T05:28:34.688Z,1.24
2017-11-29T05:31:03.758Z,1.19
2017-11-29T05:33:32.118Z,1.19
2017-11-29T05:36:00.860Z,1.13
2017-11-29T05:38:29.983Z,1.05
2017-11-29T05:40:58.303Z,1.06
2017-11-29T05:43:26.661Z,1.01
2017-11-29T05:45:55.756Z,0.97
2017-11-29T05:48:25.295Z,0.91
2017-11-29T05:50:54.467Z,0.84
2017-11-29T05:53:22.799Z,0.79
2017-11-29T05:55:51.928Z,0.77
2017-11-29T05:58:20.300Z,0.75
2017-11-29T06:00:49.036Z,0.73
2017-11-29T06:03:17.345Z,0.68
2017-11-29T06:05:45.703Z,0.64
2017-11-29T06:08:15.362Z,0.63
2017-11-29T06:10:43.711Z,0.59
2017-11-29T06:13:12.075Z,0.53
2017-11-29T06:15:40.449Z,0.49
2017-11-29T06:18:09.555Z,0.45
2017-11-29T06:20:37.887Z,0.38
2017-11-29T06:23:06.239Z,0.33
2017-11-29T06:25:34.955Z,0.31
2017-11-29T06:28:03.284Z,0.30
2017-11-29T06:30:32.419Z,0.37
2017-11-29T06:33:00.762Z,0.41
2017-11-29T06:35:29.115Z,0.35
2017-11-29T06:37:58.811Z,0.32
2017-11-29T06:40:28.315Z,0.32
2017-11-29T06:42:57.035Z,0.24
2017-11-29T06:45:26.531Z,0.28
2017-11-29T06:47:56.214Z,0.28
2017-11-29T06:50:24.577Z,0.30
2017-11-29T06:52:53.295Z,0.30
2017-11-29T06:55:22.434Z,0.30
2017-11-29T06:57:51.170Z,0.30
2017-11-29T07:00:20.403Z,0.36
2017-11-29T07:02:48.722Z,0.32
2017-11-29T07:05:17.038Z,0.33
2017-11-29T07:07:45.391Z,0.32
2017-11-29T07:10:13.866Z,0.33
2017-11-29T07:12:42.227Z,0.36
2017-11-29T07:15:10.613Z,0.42
2017-11-29T07:17:38.921Z,0.47
2017-11-29T07:20:07.666Z,0.51
2017-11-29T07:22:36.427Z,0.62
2017-11-29T07:25:05.899Z,0.67
2017-11-29T07:27:35.030Z,0.67
2017-11-29T07:30:04.150Z,0.69
2017-11-29T07:32:32.506Z,0.82
2017-11-29T07:35:00.839Z,0.84
2017-11-29T07:37:29.957Z,0.90
2017-11-29T07:39:58.275Z,0.95
2017-11-29T07:42:26.660Z,1.02
2017-11-29T07:44:55.020Z,1.06
2017-11-29T07:47:23.748Z,1.14
2017-11-29T07:49:52.870Z,1.20
2017-11-29T07:52:23.244Z,1.25
2017-11-29T07:54:51.590Z,1.32
2017-11-29T07:57:20.301Z,1.37
2017-11-29T07:59:48.667Z,1.42
2017-11-29T08:02:17.802Z,1.51
2017-11-29T08:04:46.182Z,1.52
2017-11-29T08:07:15.331Z,1.59
2017-11-29T08:09:43.654Z,1.64
2017-11-29T08:12:12.032Z,1.65
2017-11-29T08:14:40.779Z,1.69
2017-11-29T08:17:09.102Z,1.81
2017-11-29T08:19:38.227Z,1.90
2017-11-29T08:22:06.569Z,1.92
2017-11-29T08:24:35.702Z,1.96
2017-11-29T08:27:04.822Z,1.98
2017-11-29T08:29:33.530Z,2.02
2017-11-29T08:32:01.872Z,2.05
2017-11-29T08:34:30.233Z,2.09
2017-11-29T08:36:58.573Z,2.14
2017-11-29T08:39:26.909Z,2.21
2017-11-29T08:41:55.285Z,2.25
2017-11-29T08:44:24.430Z,2.30
2017-11-29T08:46:53.528Z,2.38
2017-11-29T08:49:22.646Z,2.49
2017-11-29T08:51:51.011Z,2.56
2017-11-29T08:54:20.136Z,2.61
2017-11-29T08:56:49.270Z,2.66
2017-11-29T08:59:17.615Z,2.75
2017-11-29T09:01:45.934Z,2.88
2017-11-29T09:04:14.341Z,2.91
2017-11-29T09:06:42.733Z,2.89
2017-11-29T09:09:11.078Z,2.93
2017-11-29T09:11:40.243Z,2.98
2017-11-29T09:14:08.581Z,3.02
2017-11-29T09:16:36.953Z,3.07
2017-11-29T09:19:06.058Z,3.12
2017-11-29T09:21:34.414Z,3.17
2017-11-29T09:24:03.145Z,3.23
2017-11-29T09:26:31.505Z,3.25
2017-11-29T09:28:59.859Z,3.27
2017-11-29T09:31:28.229Z,3.32
2017-11-29T09:33:56.573Z,3.34
2017-11-29T09:36:24.942Z,3.40
2017-11-29T09:38:53.661Z,3.47
2017-11-29T09:41:22.014Z,3.58
2017-11-29T09:43:50.346Z,3.67
2017-11-29T09:46:18.697Z,3.73
2017-11-29T09:48:47.820Z,3.76
2017-11-29T09:51:16.577Z,3.78
2017-11-29T09:53:45.687Z,3.81
2017-11-29T09:56:14.444Z,3.82
2017-11-29T09:58:42.786Z,3.87
2017-11-29T10:01:11.238Z,3.89
2017-11-29T10:03:39.574Z,3.90
2017-11-29T10:06:07.894Z,3.95
2017-11-29T10:08:36.259Z,4.05
2017-11-29T10:11:05.013Z,4.16
2017-11-29T10:13:33.357Z,4.21
2017-11-29T10:16:01.670Z,4.26
2017-11-29T10:18:30.077Z,4.30
2017-11-29T10:20:59.180Z,4.30
2017-11-29T10:23:28.299Z,4.33
2017-11-29T10:25:57.042Z,4.34
2017-11-29T10:28:25.374Z,4.35
2017-11-29T10:30:53.716Z,4.36
2017-11-29T10:33:22.437Z,4.30
2017-11-29T10:35:50.780Z,4.43
2017-11-29T10:38:19.102Z,4.47
2017-11-29T10:40:47.458Z,4.48
2017-11-29T10:43:15.812Z,4.54
2017-11-29T10:45:44.977Z,4.58
2017-11-29T10:48:13.684Z,4.60
2017-11-29T10:50:42.809Z,4.62
2017-11-29T10:53:11.129Z,4.61
2017-11-29T10:55:39.481Z,4.63
2017-11-29T10:58:08.629Z,4.70
2017-11-29T11:00:36.959Z,4.74
2017-11-29T11:03:05.309Z,4.76
2017-11-29T11:05:34.409Z,4.72
2017-11-29T11:08:02.727Z,4.73
2017-11-29T11:10:31.073Z,4.75
2017-11-29T11:12:59.444Z,4.76
2017-11-29T11:15:28.145Z,4.78
2017-11-29T11:17:57.625Z,4.81
2017-11-29T11:20:26.401Z,4.84
2017-11-29T11:22:55.530Z,4.87
2017-11-29T11:25:24.768Z,4.90
2017-11-29T11:27:53.107Z,4.91
2017-11-29T11:30:21.439Z,4.93
2017-11-29T11:32:50.561Z,4.99
2017-11-29T11:35:18.886Z,5.04
2017-11-29T11:37:47.238Z,5.06
2017-11-29T11:40:15.608Z,5.06
2017-11-29T11:42:43.940Z,5.04
2017-11-29T11:45:13.065Z,5.04
2017-11-29T11:47:41.377Z,5.08
2017-11-29T11:50:09.721Z,5.07
2017-11-29T11:52:38.069Z,5.09
2017-11-29T11:55:07.146Z,5.11
2017-11-29T11:57:35.504Z,5.10
2017-11-29T12:00:03.829Z,5.09
2017-11-29T12:02:32.974Z,5.08
2017-11-29T12:05:01.408Z,5.06
2017-11-29T12:07:29.873Z,5.07
2017-11-29T12:09:58.217Z,5.07
2017-11-29T12:12:26.574Z,5.06
2017-11-29T12:14:54.904Z,5.07
2017-11-29T12:17:23.274Z,5.04
2017-11-29T12:19:52.024Z,5.05
2017-11-29T12:22:20.724Z,5.05
2017-11-29T12:24:49.066Z,5.03
2017-11-29T12:27:17.384Z,5.06
2017-11-29T12:29:46.128Z,5.07
2017-11-29T12:32:14.447Z,5.05
2017-11-29T12:34:42.788Z,5.04
2017-11-29T12:37:11.489Z,5.03
2017-11-29T12:39:39.840Z,4.99
2017-11-29T12:42:08.949Z,5.03
2017-11-29T12:44:37.329Z,5.05
2017-11-29T12:47:05.636Z,5.05
2017-11-29T12:52:47.714Z,5.02
2017-11-29T12:55:16.056Z,5.00
2017-11-29T12:57:44.395Z,4.96
2017-11-29T13:00:13.104Z,4.91
2017-11-29T13:02:41.468Z,4.94
2017-11-29T13:05:10.569Z,4.94
2017-11-29T13:07:40.264Z,4.91
2017-11-29T13:10:08.575Z,4.91
2017-11-29T13:12:36.910Z,4.89
2017-11-29T13:15:05.260Z,4.86
2017-11-29T13:17:33.619Z,4.85
2017-11-29T13:20:02.688Z,4.82
2017-11-29T13:22:31.436Z,4.80
2017-11-29T13:24:59.810Z,4.78
2017-11-29T13:27:28.131Z,4.77
2017-11-29T13:29:56.519Z,4.74
2017-11-29T13:32:24.829Z,4.74
2017-11-29T13:34:53.216Z,4.76
2017-11-29T13:37:21.547Z,4.70
2017-11-29T13:39:50.280Z,4.65
2017-11-29T13:42:18.644Z,4.60
2017-11-29T13:44:47.392Z,4.59
2017-11-29T13:47:15.717Z,4.59
2017-11-29T13:49:44.039Z,4.56
2017-11-29T13:52:12.384Z,4.52
2017-11-29T13:54:40.703Z,4.48
2017-11-29T13:57:09.043Z,4.41
2017-11-29T13:59:37.384Z,4.41
2017-11-29T14:02:06.468Z,4.33
2017-11-29T14:04:35.240Z,4.25
2017-11-29T14:07:03.952Z,4.24
2017-11-29T14:09:32.719Z,4.20
2017-11-29T14:12:01.444Z,4.13
2017-11-29T14:14:30.211Z,4.08
2017-11-29T14:16:59.323Z,4.07
2017-11-29T14:19:27.636Z,3.96
2017-11-29T14:21:58.451Z,3.96
2017-11-29T14:24:28.292Z,3.87
2017-11-29T14:26:57.412Z,3.82
2017-11-29T14:29:26.504Z,3.72
2017-11-29T14:31:54.859Z,3.67
2017-11-29T14:34:23.206Z,3.63
2017-11-29T14:36:51.555Z,3.59
2017-11-29T14:39:20.643Z,3.57
2017-11-29T14:41:49.035Z,3.51
2017-11-29T14:44:17.779Z,3.46
2017-11-29T14:46:46.492Z,3.37
2017-11-29T14:49:14.840Z,3.32
2017-11-29T14:51:43.176Z,3.25
2017-11-29T14:54:11.528Z,3.20
2017-11-29T14:56:39.879Z,3.09
2017-11-29T14:59:08.639Z,3.06
2017-11-29T15:01:36.998Z,2.97
2017-11-29T15:04:05.319Z,2.93
2017-11-29T15:06:33.656Z,2.85
2017-11-29T15:09:02.007Z,2.92
2017-11-29T15:11:31.135Z,2.84
2017-11-29T15:13:59.502Z,2.75
2017-11-29T15:16:28.263Z,2.74
2017-11-29T15:18:57.380Z,2.66
2017-11-29T15:21:27.259Z,2.56
2017-11-29T15:23:56.351Z,2.47
2017-11-29T15:26:25.512Z,2.43
2017-11-29T15:28:53.832Z,2.42
2017-11-29T15:31:22.195Z,2.34
2017-11-29T15:33:50.522Z,2.36
2017-11-29T15:36:18.904Z,2.42
2017-11-29T15:38:47.684Z,2.38
2017-11-29T15:41:16.023Z,2.33
2017-11-29T15:43:44.774Z,2.33
2017-11-29T15:46:13.500Z,2.31
2017-11-29T15:48:43.468Z,2.24
2017-11-29T15:51:12.756Z,2.24
2017-11-29T15:53:41.935Z,2.21
2017-11-29T15:56:10.307Z,2.26
2017-11-29T15:58:42.376Z,2.21
2017-11-29T16:01:10.771Z,2.17
2017-11-29T16:03:39.627Z,2.11
2017-11-29T16:06:08.607Z,2.14
2017-11-29T16:08:36.962Z,2.24
2017-11-29T16:11:06.148Z,2.16
2017-11-29T16:13:35.611Z,2.00
2017-11-29T16:16:04.894Z,1.90
2017-11-29T16:18:33.274Z,1.91
2017-11-29T16:21:02.371Z,1.82
2017-11-29T16:23:31.130Z,1.79
2017-11-29T16:25:59.910Z,1.73
2017-11-29T16:28:28.231Z,1.66
2017-11-29T16:30:58.306Z,1.62
2017-11-29T16:33:27.291Z,1.60
2017-11-29T16:35:56.050Z,1.56
2017-11-29T16:38:26.478Z,1.51
2017-11-29T16:40:54.857Z,1.44
2017-11-29T16:43:24.121Z,1.41
2017-11-29T16:45:53.406Z,1.41
2017-11-29T16:48:22.066Z,1.37
2017-11-29T16:50:50.451Z,1.35
2017-11-29T16:53:18.834Z,1.30
2017-11-29T16:55:47.161Z,1.30
2017-11-29T16:58:15.538Z,1.24
2017-11-29T17:00:45.055Z,1.21
2017-11-29T17:03:13.462Z,1.20
2017-11-29T17:05:41.782Z,1.19
2017-11-29T17:08:10.153Z,1.15
2017-11-29T17:10:38.931Z,1.13
2017-11-29T17:13:07.327Z,1.11
2017-11-29T17:15:36.075Z,1.06
2017-11-29T17:18:04.815Z,1.01
2017-11-29T17:20:33.955Z,1.02
2017-11-29T17:23:02.318Z,1.01
2017-11-29T17:25:30.649Z,0.97
2017-11-29T17:27:59.007Z,0.90
2017-11-29T17:30:30.210Z,0.85
2017-11-29T17:33:00.078Z,0.84
2017-11-29T17:35:28.406Z,0.80
2017-11-29T17:37:56.745Z,0.79
2017-11-29T17:40:27.326Z,0.79
2017-11-29T17:42:55.749Z,0.77
2017-11-29T17:45:24.576Z,0.73
2017-11-29T17:47:53.449Z,0.64
2017-11-29T17:50:22.525Z,0.71
2017-11-29T17:52:51.656Z,0.72
2017-11-29T17:55:20.121Z,0.72
2017-11-29T17:57:48.467Z,0.68
2017-11-29T18:00:18.365Z,0.68
2017-11-29T18:02:47.123Z,0.62
2017-11-29T18:05:16.717Z,0.62
2017-11-29T18:07:45.481Z,0.59
2017-11-29T18:10:14.621Z,0.62
2017-11-29T18:12:44.134Z,0.63
2017-11-29T18:15:12.558Z,0.66
2017-11-29T18:17:41.752Z,0.64
2017-11-29T18:20:11.209Z,0.55
2017-11-29T18:22:39.541Z,0.54
2017-11-29T18:25:09.634Z,0.54
2017-11-29T18:27:38.024Z,0.53
2017-11-29T18:30:06.762Z,0.44
2017-11-29T18:32:35.162Z,0.38
2017-11-29T18:35:03.555Z,0.32
2017-11-29T18:37:31.897Z,0.27
2017-11-29T18:40:00.280Z,0.26
2017-11-29T18:42:29.687Z,0.23
2017-11-29T18:44:58.837Z,-0.12
2017-11-29T18:47:27.577Z,0.18
2017-11-29T18:49:56.093Z,0.13
2017-11-29T18:52:24.444Z,0.09
2017-11-29T18:54:53.378Z,0.03
2017-11-29T18:57:22.558Z,0.04
2017-11-29T18:59:51.733Z,0.03
2017-11-29T19:02:20.085Z,0.00
2017-11-29T19:04:48.460Z,-0.01
2017-11-29T19:07:17.596Z,-0.02
2017-11-29T19:09:45.977Z,-0.02
2017-11-29T19:12:14.375Z,-0.01
2017-11-29T19:14:43.146Z,-0.01
2017-11-29T19:17:11.891Z,0.04
2017-11-29T19:19:40.792Z,0.05
2017-11-29T19:22:09.904Z,0.04
2017-11-29T19:24:38.255Z,0.03
2017-11-29T19:27:06.630Z,0.02
2017-11-29T19:29:36.564Z,0.04
2017-11-29T19:32:05.817Z,-0.02
2017-11-29T19:34:35.682Z,-0.22
2017-11-29T19:37:04.041Z,-0.03
2017-11-29T19:39:32.420Z,-0.05
2017-11-29T19:42:01.201Z,-0.06
2017-11-29T19:44:30.510Z,0.08
2017-11-29T19:46:59.805Z,0.01
2017-11-29T19:49:28.184Z,-0.02
2017-11-29T19:51:56.780Z,-0.03
2017-11-29T19:54:29.032Z,-0.05
2017-11-29T19:56:58.225Z,-0.01
2017-11-29T19:59:27.492Z,-0.04
2017-11-29T20:01:57.977Z,-0.04
2017-11-29T20:04:26.353Z,-0.04
2017-11-29T20:06:55.729Z,-0.06
2017-11-29T20:09:24.872Z,-0.09
2017-11-29T20:11:53.209Z,-0.01
2017-11-29T20:14:22.298Z,-0.04
2017-11-29T20:16:50.643Z,0.06
2017-11-29T20:19:19.868Z,0.19
2017-11-29T20:21:48.797Z,0.27
2017-11-29T20:24:17.654Z,0.34
2017-11-29T20:26:46.433Z,0.44
2017-11-29T20:29:14.812Z,0.50
2017-11-29T20:31:44.632Z,0.52
2017-11-29T20:34:14.418Z,0.45
2017-11-29T20:36:44.874Z,0.45
2017-11-29T20:39:13.279Z,0.40
2017-11-29T20:41:45.197Z,0.39
2017-11-29T20:44:14.437Z,0.37
2017-11-29T20:46:43.738Z,0.37
2017-11-29T20:49:12.484Z,0.33
2017-11-29T20:51:40.834Z,0.30
2017-11-29T20:54:11.681Z,0.27
2017-11-29T20:56:41.944Z,0.22
2017-11-29T20:59:10.440Z,0.17
2017-11-29T21:01:38.897Z,0.14
2017-11-29T21:04:08.679Z,0.11
2017-11-29T21:06:38.606Z,0.14
2017-11-29T21:09:07.948Z,0.21
2017-11-29T21:11:37.179Z,0.22
2017-11-29T21:14:06.869Z,0.16
2017-11-29T21:16:36.928Z,0.18
2017-11-29T21:19:05.697Z,0.17
2017-11-29T21:21:34.107Z,0.08
2017-11-29T21:24:02.480Z,0.04
2017-11-29T21:26:31.611Z,0.03
2017-11-29T21:29:00.573Z,-0.04
2017-11-29T21:31:28.948Z,-0.06
2017-11-29T21:33:58.097Z,-0.01
2017-11-29T21:36:26.445Z,0.02
2017-11-29T21:38:55.547Z,-0.02
2017-11-29T21:41:24.323Z,-0.05
2017-11-29T21:43:52.710Z,-0.08
2017-11-29T21:46:21.541Z,-0.10
2017-11-29T21:48:50.693Z,-0.13
2017-11-29T21:51:19.037Z,-0.17
2017-11-29T21:53:47.781Z,-0.21
2017-11-29T21:56:17.755Z,-0.24
2017-11-29T21:58:46.868Z,-0.27
2017-11-29T22:01:15.299Z,-0.31
2017-11-29T22:03:43.683Z,-0.31
2017-11-29T22:06:12.060Z,-0.30
2017-11-29T22:08:40.399Z,-0.30
2017-11-29T22:11:09.528Z,-0.30
2017-11-29T22:13:37.855Z,-0.31
2017-11-29T22:16:06.243Z,-0.31
2017-11-29T22:18:34.579Z,-0.35
2017-11-29T22:21:03.338Z,-0.35
2017-11-29T22:23:32.475Z,-0.38
2017-11-29T22:26:00.870Z,-0.41
2017-11-29T22:28:30.891Z,-0.34
2017-11-29T22:31:00.031Z,-0.30
2017-11-29T22:33:29.175Z,-0.34
2017-11-29T22:36:00.423Z,-0.35
2017-11-29T22:38:28.796Z,-0.34
2017-11-29T22:40:57.923Z,-0.36
2017-11-29T22:43:26.644Z,-0.40
2017-11-29T22:45:55.421Z,-0.42
2017-11-29T22:48:24.152Z,-0.42
2017-11-29T22:50:52.531Z,-0.44
2017-11-29T22:53:20.899Z,-0.49
2017-11-29T22:55:49.267Z,-0.51
2017-11-29T22:58:18.371Z,-0.57
2017-11-29T23:00:47.879Z,-0.60
2017-11-29T23:03:16.260Z,-0.60
2017-11-29T23:05:44.614Z,-0.61
2017-11-29T23:08:13.347Z,-0.60
2017-11-29T23:10:43.366Z,-0.55
2017-11-29T23:13:11.711Z,-0.46
2017-11-29T23:15:40.450Z,-0.38
2017-11-29T23:18:08.815Z,-0.42
2017-11-29T23:20:37.165Z,-0.39
2017-11-29T23:23:05.940Z,-0.32
2017-11-29T23:25:34.719Z,-0.23
2017-11-29T23:28:03.104Z,-0.10
2017-11-29T23:30:31.447Z,-0.01
2017-11-29T23:33:00.190Z,0.10
2017-11-29T23:35:28.575Z,0.16
2017-11-29T23:37:56.928Z,0.24
2017-11-29T23:40:25.267Z,0.30
2017-11-29T23:42:54.033Z,0.35
2017-11-29T23:45:22.374Z,0.40
2017-11-29T23:47:51.209Z,0.50
2017-11-29T23:50:19.554Z,0.56
2017-11-29T23:52:47.927Z,0.62
2017-11-29T23:55:16.278Z,0.70
2017-11-29T23:57:45.046Z,0.77
